Beach Haven, NJ (08008)

6:27 PM EDT on September 04, 2015 (GMT -0400)
Beach Arlington | | Change Station
CLOSE
Current Station
Personal Weather Station
Location: Ship Bottom, NJ
Elevation: 12 ft
Nearby Weather Stations

Elev 12 ft 39.64 °N, 74.18 °W | Updated 3 seconds ago

Overcast
Overcast
75.0 °F
Feels Like 74 °F
N
13.0
Wind Variable Wind from NE
Gusts 18.0 mph

Today
High -- | Low -- °F
--% Chance of Precip.
Yesterday
High -- | Low -- °F
Precip. -- in
6:27 AM 7:23 PM
Waning Gibbous, 55% visible
Pressure 30.12 in
Visibility 10.0 miles
Clouds Overcast 1700 ft
Heat Index 74 °F
Dew Point 71 °F
Humidity 88%
Rainfall 0.00 in
Snow Depth Not available.
UV 0 out of 12
Pollen 9.50 out of 12
Air Quality Not available.
Flu Activity Not available.
METAR KMJX 042215Z AUTO 07008KT 050V110 10SM OVC017 23/19 A3012 RMK AO1
Pressure 30.12 in
Visibility 10.0 miles
Clouds Overcast 1700 ft
Heat Index 74 °F
Dew Point 71 °F
Humidity 88%
Rainfall 0.00 in
Snow Depth Not available.
UV 0 out of 12
Pollen 9.50 out of 12
Air Quality Not available.
Flu Activity Not available.
METAR KMJX 042215Z AUTO 07008KT 050V110 10SM OVC017 23/19 A3012 RMK AO1

10-Day Weather Forecast

×

Almanac

Astronomy

Sep. 04, 2015 Rise Set
Actual Time
Civil Twilight
Nautical Twilight
Astronomical Twilight
Moon
Length of Visible Light
Length of Day
Tomorrow will be .
, % of the Moon is Illuminated

Today's Extremes

State Highs State Lows

Community

WunderPhotos

Upload Photos

1,852,308 photos uploaded!

WunderBlogs® & News

Nearby

Air Quality

  Air Quality AQ Index Pollutant
Not available.

Snow Depth

Station Depth Elevation

Earthquake Activity

City Distance Mag. Time & Date
Minimum magnitude displayed is 2.5.

Coastal Water Temperatures

Place Temperature

Stations

Nearby Weather Stations

Station Location Temp. Windchill Dew Point Humidity Wind Precip. Elev Updated Type